sensor_id;sensor_type;location;lat;lon;timestamp;pressure;altitude;pressure_sealevel;temperature;humidity
44988;BME280;35735;52.226;21.254;2022-09-28T00:02:01;98473.56;;;12.61;100.00
44988;BME280;35735;52.226;21.254;2022-09-28T00:07:02;98472.78;;;12.57;100.00
44988;BME280;35735;52.226;21.254;2022-09-28T00:12:03;98465.66;;;12.56;100.00
44988;BME280;35735;52.226;21.254;2022-09-28T00:17:03;98472.03;;;12.54;100.00
44988;BME280;35735;52.226;21.254;2022-09-28T00:22:05;98475.44;;;12.59;100.00
44988;BME280;35735;52.226;21.254;2022-09-28T00:27:06;98466.28;;;12.63;100.00
44988;BME280;35735;52.226;21.254;2022-09-28T00:32:11;98467.44;;;12.56;100.00
44988;BME280;35735;52.226;21.254;2022-09-28T00:37:13;98464.84;;;12.53;100.00
44988;BME280;35735;52.226;21.254;2022-09-28T00:42:17;98469.63;;;12.46;100.00
44988;BME280;35735;52.226;21.254;2022-09-28T00:47:45;98460.81;;;12.41;100.00
44988;BME280;35735;52.226;21.254;2022-09-28T00:58:15;98447.75;;;12.29;100.00
44988;BME280;35735;52.226;21.254;2022-09-28T01:03:19;98460.63;;;12.22;100.00
44988;BME280;35735;52.226;21.254;2022-09-28T01:08:20;98463.50;;;12.17;100.00
44988;BME280;35735;52.226;21.254;2022-09-28T01:13:22;98453.94;;;12.09;100.00
44988;BME280;35735;52.226;21.254;2022-09-28T01:19:04;98458.69;;;12.02;100.00
44988;BME280;35735;52.226;21.254;2022-09-28T01:24:38;98460.84;;;11.92;100.00
44988;BME280;35735;52.226;21.254;2022-09-28T01:30:02;98454.69;;;11.87;100.00
44988;BME280;35735;52.226;21.254;2022-09-28T01:35:12;98460.31;;;11.81;100.00
44988;BME280;35735;52.226;21.254;2022-09-28T01:40:18;98467.59;;;11.79;100.00
44988;BME280;35735;52.226;21.254;2022-09-28T01:45:25;98470.47;;;11.74;100.00
44988;BME280;35735;52.226;21.254;2022-09-28T01:50:30;98468.16;;;11.63;100.00
44988;BME280;35735;52.226;21.254;2022-09-28T01:55:57;98477.28;;;11.59;100.00
44988;BME280;35735;52.226;21.254;2022-09-28T02:01:09;98478.41;;;11.54;100.00
44988;BME280;35735;52.226;21.254;2022-09-28T02:06:26;98479.41;;;11.51;100.00
44988;BME280;35735;52.226;21.254;2022-09-28T02:11:31;98476.84;;;11.46;100.00
44988;BME280;35735;52.226;21.254;2022-09-28T02:16:42;98480.53;;;11.44;100.00
44988;BME280;35735;52.226;21.254;2022-09-28T02:21:57;98478.56;;;11.49;100.00
44988;BME280;35735;52.226;21.254;2022-09-28T02:27:13;98473.88;;;11.54;100.00
44988;BME280;35735;52.226;21.254;2022-09-28T02:32:19;98479.06;;;11.60;100.00
44988;BME280;35735;52.226;21.254;2022-09-28T02:37:20;98478.97;;;11.63;100.00
44988;BME280;35735;52.226;21.254;2022-09-28T02:42:33;98480.00;;;11.59;100.00
44988;BME280;35735;52.226;21.254;2022-09-28T02:48:06;98489.97;;;11.57;100.00
44988;BME280;35735;52.226;21.254;2022-09-28T03:10:18;98480.28;;;11.52;100.00
44988;BME280;35735;52.226;21.254;2022-09-28T03:15:26;98486.34;;;11.58;100.00
44988;BME280;35735;52.226;21.254;2022-09-28T03:20:30;98480.00;;;11.59;100.00
44988;BME280;35735;52.226;21.254;2022-09-28T03:25:31;98495.47;;;11.54;100.00
44988;BME280;35735;52.226;21.254;2022-09-28T03:30:31;98497.38;;;11.52;100.00
44988;BME280;35735;52.226;21.254;2022-09-28T03:35:32;98491.25;;;11.47;100.00
44988;BME280;35735;52.226;21.254;2022-09-28T03:40:33;98489.47;;;11.46;100.00
44988;BME280;35735;52.226;21.254;2022-09-28T03:45:33;98497.25;;;11.55;100.00
44988;BME280;35735;52.226;21.254;2022-09-28T03:50:34;98496.50;;;11.52;100.00
44988;BME280;35735;52.226;21.254;2022-09-28T03:55:34;98486.56;;;11.52;100.00
44988;BME280;35735;52.226;21.254;2022-09-28T04:00:37;98481.16;;;11.52;100.00
44988;BME280;35735;52.226;21.254;2022-09-28T04:05:39;98481.34;;;11.46;100.00
44988;BME280;35735;52.226;21.254;2022-09-28T04:10:47;98475.84;;;11.49;100.00
44988;BME280;35735;52.226;21.254;2022-09-28T04:15:52;98482.94;;;11.53;100.00
44988;BME280;35735;52.226;21.254;2022-09-28T04:21:05;98477.72;;;11.47;100.00
44988;BME280;35735;52.226;21.254;2022-09-28T04:26:12;98472.53;;;11.41;100.00
44988;BME280;35735;52.226;21.254;2022-09-28T04:31:21;98480.88;;;11.35;100.00
44988;BME280;35735;52.226;21.254;2022-09-28T04:36:22;98483.72;;;11.30;100.00
44988;BME280;35735;52.226;21.254;2022-09-28T04:41:23;98481.94;;;11.29;100.00
44988;BME280;35735;52.226;21.254;2022-09-28T04:46:24;98479.03;;;11.35;100.00
44988;BME280;35735;52.226;21.254;2022-09-28T04:51:24;98473.78;;;11.30;100.00
44988;BME280;35735;52.226;21.254;2022-09-28T04:56:25;98467.66;;;11.25;100.00
44988;BME280;35735;52.226;21.254;2022-09-28T05:01:25;98463.47;;;11.17;100.00
44988;BME280;35735;52.226;21.254;2022-09-28T05:06:26;98472.28;;;11.22;100.00
44988;BME280;35735;52.226;21.254;2022-09-28T05:11:26;98474.28;;;11.17;100.00
44988;BME280;35735;52.226;21.254;2022-09-28T05:16:27;98471.63;;;11.15;100.00
44988;BME280;35735;52.226;21.254;2022-09-28T05:21:27;98469.63;;;11.20;100.00
44988;BME280;35735;52.226;21.254;2022-09-28T05:26:28;98470.47;;;11.22;100.00
44988;BME280;35735;52.226;21.254;2022-09-28T05:31:29;98482.94;;;11.26;100.00
44988;BME280;35735;52.226;21.254;2022-09-28T05:36:29;98472.97;;;11.28;100.00
44988;BME280;35735;52.226;21.254;2022-09-28T05:41:30;98494.53;;;11.30;100.00
44988;BME280;35735;52.226;21.254;2022-09-28T05:46:30;98495.53;;;11.26;100.00
44988;BME280;35735;52.226;21.254;2022-09-28T05:51:31;98509.22;;;11.21;100.00
44988;BME280;35735;52.226;21.254;2022-09-28T05:56:31;98516.41;;;11.21;100.00
44988;BME280;35735;52.226;21.254;2022-09-28T06:01:32;98523.66;;;11.20;100.00
44988;BME280;35735;52.226;21.254;2022-09-28T06:06:34;98531.00;;;11.15;100.00
44988;BME280;35735;52.226;21.254;2022-09-28T06:11:34;98531.16;;;11.10;100.00
44988;BME280;35735;52.226;21.254;2022-09-28T06:16:35;98530.50;;;11.02;100.00
44988;BME280;35735;52.226;21.254;2022-09-28T06:21:36;98534.22;;;11.00;100.00
44988;BME280;35735;52.226;21.254;2022-09-28T06:26:37;98535.97;;;11.01;100.00
44988;BME280;35735;52.226;21.254;2022-09-28T06:31:38;98538.66;;;11.01;100.00
44988;BME280;35735;52.226;21.254;2022-09-28T06:36:38;98540.34;;;11.05;100.00
44988;BME280;35735;52.226;21.254;2022-09-28T06:41:39;98543.88;;;11.07;100.00
44988;BME280;35735;52.226;21.254;2022-09-28T06:46:40;98550.09;;;11.09;100.00
44988;BME280;35735;52.226;21.254;2022-09-28T06:51:41;98553.13;;;11.00;100.00
44988;BME280;35735;52.226;21.254;2022-09-28T06:56:41;98557.72;;;10.96;100.00
44988;BME280;35735;52.226;21.254;2022-09-28T07:01:42;98556.81;;;10.96;100.00
44988;BME280;35735;52.226;21.254;2022-09-28T07:06:46;98564.00;;;10.97;100.00
44988;BME280;35735;52.226;21.254;2022-09-28T07:11:46;98563.00;;;10.99;100.00
44988;BME280;35735;52.226;21.254;2022-09-28T07:16:47;98558.38;;;11.04;100.00
44988;BME280;35735;52.226;21.254;2022-09-28T07:21:50;98557.09;;;11.16;100.00
44988;BME280;35735;52.226;21.254;2022-09-28T07:26:51;98555.75;;;11.29;100.00
44988;BME280;35735;52.226;21.254;2022-09-28T07:31:53;98557.91;;;11.46;100.00
44988;BME280;35735;52.226;21.254;2022-09-28T07:36:53;98551.09;;;11.61;100.00
44988;BME280;35735;52.226;21.254;2022-09-28T07:41:54;98557.94;;;11.72;100.00
44988;BME280;35735;52.226;21.254;2022-09-28T07:46:54;98549.47;;;11.82;100.00
44988;BME280;35735;52.226;21.254;2022-09-28T07:51:55;98551.81;;;11.93;100.00
44988;BME280;35735;52.226;21.254;2022-09-28T07:56:56;98556.47;;;12.15;100.00
44988;BME280;35735;52.226;21.254;2022-09-28T08:01:57;98567.81;;;12.50;100.00
44988;BME280;35735;52.226;21.254;2022-09-28T08:06:57;98570.53;;;12.73;100.00
44988;BME280;35735;52.226;21.254;2022-09-28T08:11:58;98573.72;;;12.85;100.00
44988;BME280;35735;52.226;21.254;2022-09-28T08:17:00;98587.47;;;13.02;100.00
44988;BME280;35735;52.226;21.254;2022-09-28T08:22:00;98586.03;;;13.15;100.00
44988;BME280;35735;52.226;21.254;2022-09-28T08:27:01;98590.94;;;13.28;100.00
44988;BME280;35735;52.226;21.254;2022-09-28T08:32:03;98596.91;;;13.38;100.00
44988;BME280;35735;52.226;21.254;2022-09-28T08:37:05;98592.59;;;13.56;100.00
44988;BME280;35735;52.226;21.254;2022-09-28T08:42:18;98590.31;;;13.67;100.00
44988;BME280;35735;52.226;21.254;2022-09-28T08:52:47;98595.44;;;13.73;100.00
44988;BME280;35735;52.226;21.254;2022-09-28T09:03:17;98598.16;;;13.73;100.00
44988;BME280;35735;52.226;21.254;2022-09-28T09:08:29;98596.28;;;13.75;100.00
44988;BME280;35735;52.226;21.254;2022-09-28T09:13:50;98598.56;;;14.06;100.00
44988;BME280;35735;52.226;21.254;2022-09-28T09:19:25;98604.06;;;14.25;100.00
44988;BME280;35735;52.226;21.254;2022-09-28T09:24:54;98594.31;;;14.42;100.00
44988;BME280;35735;52.226;21.254;2022-09-28T09:30:19;98608.56;;;14.68;100.00
44988;BME280;35735;52.226;21.254;2022-09-28T09:35:30;98602.19;;;14.69;100.00
44988;BME280;35735;52.226;21.254;2022-09-28T09:47:08;98608.13;;;14.56;100.00
44988;BME280;35735;52.226;21.254;2022-09-28T09:52:20;98619.81;;;14.38;100.00
44988;BME280;35735;52.226;21.254;2022-09-28T09:57:26;98623.31;;;14.40;100.00
44988;BME280;35735;52.226;21.254;2022-09-28T10:02:33;98615.72;;;14.48;100.00
44988;BME280;35735;52.226;21.254;2022-09-28T10:07:41;98612.94;;;14.50;100.00
44988;BME280;35735;52.226;21.254;2022-09-28T10:13:03;98629.97;;;14.53;100.00
44988;BME280;35735;52.226;21.254;2022-09-28T10:18:05;98636.37;;;14.52;100.00
44988;BME280;35735;52.226;21.254;2022-09-28T10:23:20;98636.66;;;14.67;100.00
44988;BME280;35735;52.226;21.254;2022-09-28T10:28:38;98645.19;;;14.78;100.00
44988;BME280;35735;52.226;21.254;2022-09-28T10:33:41;98638.31;;;14.90;100.00
44988;BME280;35735;52.226;21.254;2022-09-28T10:38:46;98634.91;;;15.05;100.00
44988;BME280;35735;52.226;21.254;2022-09-28T10:43:56;98637.91;;;15.18;100.00
44988;BME280;35735;52.226;21.254;2022-09-28T10:49:10;98634.13;;;15.22;100.00
44988;BME280;35735;52.226;21.254;2022-09-28T10:54:19;98633.38;;;15.18;100.00
44988;BME280;35735;52.226;21.254;2022-09-28T11:04:31;98629.75;;;14.99;100.00
44988;BME280;35735;52.226;21.254;2022-09-28T11:09:41;98631.44;;;15.01;100.00
44988;BME280;35735;52.226;21.254;2022-09-28T11:14:42;98631.75;;;15.14;100.00
44988;BME280;35735;52.226;21.254;2022-09-28T11:19:43;98632.47;;;15.18;100.00
44988;BME280;35735;52.226;21.254;2022-09-28T11:24:44;98629.09;;;15.13;98.19
44988;BME280;35735;52.226;21.254;2022-09-28T11:29:53;98636.66;;;15.06;98.37
44988;BME280;35735;52.226;21.254;2022-09-28T11:34:58;98636.87;;;15.01;98.24
44988;BME280;35735;52.226;21.254;2022-09-28T11:50:51;98625.72;;;15.08;98.41
44988;BME280;35735;52.226;21.254;2022-09-28T11:56:13;98630.75;;;15.17;98.14
44988;BME280;35735;52.226;21.254;2022-09-28T12:01:41;98624.28;;;15.38;97.80
44988;BME280;35735;52.226;21.254;2022-09-28T12:06:59;98631.03;;;15.49;96.75
44988;BME280;35735;52.226;21.254;2022-09-28T12:12:30;98628.44;;;15.46;95.13
44988;BME280;35735;52.226;21.254;2022-09-28T12:17:38;98643.97;;;15.44;94.70
44988;BME280;35735;52.226;21.254;2022-09-28T12:22:58;98649.69;;;15.37;94.03
44988;BME280;35735;52.226;21.254;2022-09-28T12:28:06;98649.81;;;15.34;94.50
44988;BME280;35735;52.226;21.254;2022-09-28T12:33:15;98656.91;;;15.38;94.53
44988;BME280;35735;52.226;21.254;2022-09-28T12:38:31;98660.69;;;15.34;94.37
44988;BME280;35735;52.226;21.254;2022-09-28T13:01:13;98668.41;;;14.23;97.83
44988;BME280;35735;52.226;21.254;2022-09-28T13:12:32;98677.00;;;13.68;99.74
44988;BME280;35735;52.226;21.254;2022-09-28T13:17:52;98669.09;;;13.62;100.00
44988;BME280;35735;52.226;21.254;2022-09-28T13:28:11;98639.47;;;13.58;100.00
44988;BME280;35735;52.226;21.254;2022-09-28T13:33:22;98646.66;;;13.59;100.00
44988;BME280;35735;52.226;21.254;2022-09-28T13:38:30;98647.47;;;13.61;100.00
44988;BME280;35735;52.226;21.254;2022-09-28T13:49:22;98643.84;;;13.62;100.00
44988;BME280;35735;52.226;21.254;2022-09-28T13:54:48;98639.47;;;13.58;100.00
44988;BME280;35735;52.226;21.254;2022-09-28T14:00:15;98635.88;;;13.57;100.00
44988;BME280;35735;52.226;21.254;2022-09-28T14:10:51;98636.06;;;13.52;100.00
44988;BME280;35735;52.226;21.254;2022-09-28T14:27:25;98638.84;;;13.51;100.00
44988;BME280;35735;52.226;21.254;2022-09-28T14:32:33;98633.34;;;13.52;100.00
44988;BME280;35735;52.226;21.254;2022-09-28T14:37:36;98632.38;;;13.55;100.00
44988;BME280;35735;52.226;21.254;2022-09-28T14:42:39;98643.00;;;13.60;100.00
44988;BME280;35735;52.226;21.254;2022-09-28T14:47:43;98641.12;;;13.62;100.00
44988;BME280;35735;52.226;21.254;2022-09-28T14:53:17;98632.78;;;13.66;100.00
44988;BME280;35735;52.226;21.254;2022-09-28T14:58:22;98625.56;;;13.67;100.00
44988;BME280;35735;52.226;21.254;2022-09-28T15:03:26;98634.44;;;13.70;100.00
44988;BME280;35735;52.226;21.254;2022-09-28T15:08:38;98642.44;;;13.74;100.00
44988;BME280;35735;52.226;21.254;2022-09-28T15:13:39;98633.28;;;13.76;100.00
44988;BME280;35735;52.226;21.254;2022-09-28T15:24:30;98638.09;;;13.92;100.00
44988;BME280;35735;52.226;21.254;2022-09-28T15:29:34;98634.28;;;13.96;100.00
44988;BME280;35735;52.226;21.254;2022-09-28T15:34:35;98640.72;;;13.93;100.00
44988;BME280;35735;52.226;21.254;2022-09-28T15:39:36;98651.50;;;13.95;100.00
44988;BME280;35735;52.226;21.254;2022-09-28T15:44:38;98648.78;;;13.95;100.00
44988;BME280;35735;52.226;21.254;2022-09-28T15:50:00;98643.69;;;13.87;100.00
44988;BME280;35735;52.226;21.254;2022-09-28T15:55:16;98638.59;;;13.79;100.00
44988;BME280;35735;52.226;21.254;2022-09-28T16:10:52;98648.91;;;13.47;100.00
44988;BME280;35735;52.226;21.254;2022-09-28T16:16:14;98641.25;;;13.37;100.00
44988;BME280;35735;52.226;21.254;2022-09-28T16:26:37;98642.81;;;13.19;100.00
44988;BME280;35735;52.226;21.254;2022-09-28T16:31:38;98640.44;;;13.09;100.00
44988;BME280;35735;52.226;21.254;2022-09-28T16:36:43;98641.56;;;13.04;100.00
44988;BME280;35735;52.226;21.254;2022-09-28T16:41:51;98639.25;;;12.93;100.00
44988;BME280;35735;52.226;21.254;2022-09-28T16:46:56;98633.28;;;12.85;100.00
44988;BME280;35735;52.226;21.254;2022-09-28T16:51:57;98621.66;;;12.81;100.00
44988;BME280;35735;52.226;21.254;2022-09-28T16:56:58;98612.41;;;12.63;100.00
44988;BME280;35735;52.226;21.254;2022-09-28T17:01:59;98609.34;;;12.49;100.00
44988;BME280;35735;52.226;21.254;2022-09-28T17:07:00;98615.88;;;12.43;100.00
44988;BME280;35735;52.226;21.254;2022-09-28T17:12:01;98615.97;;;12.40;100.00
44988;BME280;35735;52.226;21.254;2022-09-28T17:17:01;98626.12;;;12.33;100.00
44988;BME280;35735;52.226;21.254;2022-09-28T17:22:02;98615.41;;;12.30;100.00
44988;BME280;35735;52.226;21.254;2022-09-28T17:27:03;98613.47;;;12.34;100.00
44988;BME280;35735;52.226;21.254;2022-09-28T17:32:10;98618.94;;;12.32;100.00
44988;BME280;35735;52.226;21.254;2022-09-28T17:37:16;98605.47;;;12.31;100.00
44988;BME280;35735;52.226;21.254;2022-09-28T17:42:16;98602.09;;;12.24;100.00
44988;BME280;35735;52.226;21.254;2022-09-28T17:47:17;98605.81;;;12.21;100.00
44988;BME280;35735;52.226;21.254;2022-09-28T17:52:18;98597.81;;;12.18;100.00
44988;BME280;35735;52.226;21.254;2022-09-28T17:57:19;98579.84;;;12.16;100.00
44988;BME280;35735;52.226;21.254;2022-09-28T18:02:19;98587.25;;;12.11;100.00
44988;BME280;35735;52.226;21.254;2022-09-28T18:07:20;98592.75;;;12.08;100.00
44988;BME280;35735;52.226;21.254;2022-09-28T18:12:20;98597.97;;;12.14;100.00
44988;BME280;35735;52.226;21.254;2022-09-28T18:17:21;98612.31;;;12.16;100.00
44988;BME280;35735;52.226;21.254;2022-09-28T18:22:22;98618.31;;;12.24;100.00
44988;BME280;35735;52.226;21.254;2022-09-28T18:27:22;98629.87;;;12.29;100.00
44988;BME280;35735;52.226;21.254;2022-09-28T18:32:23;98639.16;;;12.22;100.00
44988;BME280;35735;52.226;21.254;2022-09-28T18:37:23;98660.13;;;12.15;100.00
44988;BME280;35735;52.226;21.254;2022-09-28T18:42:24;98677.31;;;12.13;100.00
44988;BME280;35735;52.226;21.254;2022-09-28T18:47:25;98687.31;;;12.11;100.00
44988;BME280;35735;52.226;21.254;2022-09-28T18:52:26;98693.88;;;12.03;100.00
44988;BME280;35735;52.226;21.254;2022-09-28T18:57:26;98704.87;;;11.97;100.00
44988;BME280;35735;52.226;21.254;2022-09-28T19:02:27;98700.53;;;11.93;100.00
44988;BME280;35735;52.226;21.254;2022-09-28T19:07:27;98707.97;;;11.85;100.00
44988;BME280;35735;52.226;21.254;2022-09-28T19:12:28;98719.59;;;11.87;100.00
44988;BME280;35735;52.226;21.254;2022-09-28T19:17:28;98731.28;;;11.87;100.00
44988;BME280;35735;52.226;21.254;2022-09-28T19:22:29;98740.44;;;11.83;100.00
44988;BME280;35735;52.226;21.254;2022-09-28T19:27:29;98741.38;;;11.82;100.00
44988;BME280;35735;52.226;21.254;2022-09-28T19:32:30;98737.88;;;11.79;100.00
44988;BME280;35735;52.226;21.254;2022-09-28T19:37:31;98734.34;;;11.77;100.00
44988;BME280;35735;52.226;21.254;2022-09-28T19:42:31;98727.16;;;11.76;100.00
44988;BME280;35735;52.226;21.254;2022-09-28T19:47:32;98725.19;;;11.81;100.00
44988;BME280;35735;52.226;21.254;2022-09-28T19:52:32;98719.06;;;11.76;100.00
44988;BME280;35735;52.226;21.254;2022-09-28T19:57:33;98710.31;;;11.67;100.00
44988;BME280;35735;52.226;21.254;2022-09-28T20:02:34;98698.25;;;11.51;100.00
44988;BME280;35735;52.226;21.254;2022-09-28T20:07:34;98693.44;;;11.31;100.00
44988;BME280;35735;52.226;21.254;2022-09-28T20:12:35;98675.69;;;11.22;100.00
44988;BME280;35735;52.226;21.254;2022-09-28T20:17:35;98675.16;;;11.11;100.00
44988;BME280;35735;52.226;21.254;2022-09-28T20:22:36;98648.69;;;10.92;100.00
44988;BME280;35735;52.226;21.254;2022-09-28T20:27:36;98650.91;;;10.78;100.00
44988;BME280;35735;52.226;21.254;2022-09-28T20:32:37;98650.41;;;10.64;100.00
44988;BME280;35735;52.226;21.254;2022-09-28T20:37:38;98652.25;;;10.63;100.00
44988;BME280;35735;52.226;21.254;2022-09-28T20:42:38;98657.69;;;10.62;100.00
44988;BME280;35735;52.226;21.254;2022-09-28T20:47:39;98660.22;;;10.68;100.00
44988;BME280;35735;52.226;21.254;2022-09-28T20:52:39;98658.94;;;10.81;100.00
44988;BME280;35735;52.226;21.254;2022-09-28T20:57:40;98652.31;;;10.91;100.00
44988;BME280;35735;52.226;21.254;2022-09-28T21:02:40;98663.03;;;10.94;100.00
44988;BME280;35735;52.226;21.254;2022-09-28T21:07:41;98665.69;;;10.96;100.00
44988;BME280;35735;52.226;21.254;2022-09-28T21:12:45;98658.78;;;10.86;100.00
44988;BME280;35735;52.226;21.254;2022-09-28T21:17:45;98656.16;;;10.84;100.00
44988;BME280;35735;52.226;21.254;2022-09-28T21:22:46;98659.75;;;10.83;100.00
44988;BME280;35735;52.226;21.254;2022-09-28T21:27:46;98677.16;;;10.73;100.00
44988;BME280;35735;52.226;21.254;2022-09-28T21:32:47;98672.84;;;10.66;100.00
44988;BME280;35735;52.226;21.254;2022-09-28T21:37:47;98666.84;;;10.56;100.00
44988;BME280;35735;52.226;21.254;2022-09-28T21:42:48;98667.87;;;10.50;100.00
44988;BME280;35735;52.226;21.254;2022-09-28T21:47:49;98668.44;;;10.29;100.00
44988;BME280;35735;52.226;21.254;2022-09-28T21:52:51;98678.47;;;10.24;100.00
44988;BME280;35735;52.226;21.254;2022-09-28T21:57:53;98676.63;;;10.26;100.00
44988;BME280;35735;52.226;21.254;2022-09-28T22:02:53;98692.09;;;10.19;100.00
44988;BME280;35735;52.226;21.254;2022-09-28T22:07:54;98688.00;;;10.02;100.00
44988;BME280;35735;52.226;21.254;2022-09-28T22:12:54;98691.69;;;9.98;100.00
44988;BME280;35735;52.226;21.254;2022-09-28T22:17:55;98692.59;;;9.99;100.00
44988;BME280;35735;52.226;21.254;2022-09-28T22:22:55;98689.91;;;9.99;100.00
44988;BME280;35735;52.226;21.254;2022-09-28T22:27:56;98699.88;;;9.94;100.00
44988;BME280;35735;52.226;21.254;2022-09-28T22:32:56;98714.69;;;9.77;100.00
44988;BME280;35735;52.226;21.254;2022-09-28T22:37:58;98710.41;;;9.67;100.00
44988;BME280;35735;52.226;21.254;2022-09-28T22:42:58;98717.84;;;9.57;100.00
44988;BME280;35735;52.226;21.254;2022-09-28T22:47:59;98707.69;;;9.69;100.00
44988;BME280;35735;52.226;21.254;2022-09-28T22:53:00;98715.00;;;9.62;100.00
44988;BME280;35735;52.226;21.254;2022-09-28T22:58:00;98723.72;;;9.36;100.00
44988;BME280;35735;52.226;21.254;2022-09-28T23:03:01;98725.00;;;9.18;100.00
44988;BME280;35735;52.226;21.254;2022-09-28T23:08:02;98718.03;;;9.07;100.00
44988;BME280;35735;52.226;21.254;2022-09-28T23:13:02;98718.91;;;9.08;100.00
44988;BME280;35735;52.226;21.254;2022-09-28T23:18:03;98716.25;;;9.06;100.00
44988;BME280;35735;52.226;21.254;2022-09-28T23:23:03;98719.72;;;9.12;100.00
44988;BME280;35735;52.226;21.254;2022-09-28T23:28:04;98735.81;;;9.15;100.00
44988;BME280;35735;52.226;21.254;2022-09-28T23:33:05;98725.03;;;9.16;100.00
44988;BME280;35735;52.226;21.254;2022-09-28T23:38:05;98728.53;;;9.20;100.00
44988;BME280;35735;52.226;21.254;2022-09-28T23:43:06;98728.53;;;9.20;100.00
44988;BME280;35735;52.226;21.254;2022-09-28T23:48:07;98733.94;;;9.18;100.00
44988;BME280;35735;52.226;21.254;2022-09-28T23:53:08;98732.06;;;9.22;100.00
44988;BME280;35735;52.226;21.254;2022-09-28T23:58:11;98748.09;;;9.28;100.00
